sensor_id;sensor_type;location;lat;lon;timestamp;P1;durP1;ratioP1;P2;durP2;ratioP2
9948;SDS011;5013;51.840;8.276;2022-10-31T00:01:16;25.27;;;17.03;;
9948;SDS011;5013;51.840;8.276;2022-10-31T00:03:53;36.70;;;17.83;;
9948;SDS011;5013;51.840;8.276;2022-10-31T00:06:19;26.03;;;17.93;;
9948;SDS011;5013;51.840;8.276;2022-10-31T00:08:51;28.93;;;17.83;;
9948;SDS011;5013;51.840;8.276;2022-10-31T00:11:22;29.37;;;19.03;;
9948;SDS011;5013;51.840;8.276;2022-10-31T00:13:47;27.53;;;17.20;;
9948;SDS011;5013;51.840;8.276;2022-10-31T00:16:17;37.47;;;19.63;;
9948;SDS011;5013;51.840;8.276;2022-10-31T00:18:47;33.17;;;19.87;;
9948;SDS011;5013;51.840;8.276;2022-10-31T00:21:17;32.47;;;19.63;;
9948;SDS011;5013;51.840;8.276;2022-10-31T00:23:43;28.00;;;18.83;;
9948;SDS011;5013;51.840;8.276;2022-10-31T00:26:09;32.80;;;19.43;;
9948;SDS011;5013;51.840;8.276;2022-10-31T00:28:34;27.73;;;16.90;;
9948;SDS011;5013;51.840;8.276;2022-10-31T00:31:00;33.37;;;19.60;;
9948;SDS011;5013;51.840;8.276;2022-10-31T00:33:27;33.10;;;18.27;;
9948;SDS011;5013;51.840;8.276;2022-10-31T00:35:53;31.50;;;18.43;;
9948;SDS011;5013;51.840;8.276;2022-10-31T00:38:19;21.63;;;16.50;;
9948;SDS011;5013;51.840;8.276;2022-10-31T00:40:44;26.77;;;17.50;;
9948;SDS011;5013;51.840;8.276;2022-10-31T00:43:10;36.07;;;19.87;;
9948;SDS011;5013;51.840;8.276;2022-10-31T00:45:36;28.50;;;19.30;;
9948;SDS011;5013;51.840;8.276;2022-10-31T00:48:01;28.17;;;18.57;;
9948;SDS011;5013;51.840;8.276;2022-10-31T00:50:27;24.03;;;16.83;;
9948;SDS011;5013;51.840;8.276;2022-10-31T00:52:52;25.90;;;18.30;;
9948;SDS011;5013;51.840;8.276;2022-10-31T00:55:18;31.83;;;19.70;;
9948;SDS011;5013;51.840;8.276;2022-10-31T00:57:46;28.13;;;19.40;;
9948;SDS011;5013;51.840;8.276;2022-10-31T01:00:12;31.10;;;19.50;;
9948;SDS011;5013;51.840;8.276;2022-10-31T01:02:38;29.27;;;20.23;;
9948;SDS011;5013;51.840;8.276;2022-10-31T01:05:04;31.43;;;19.27;;
9948;SDS011;5013;51.840;8.276;2022-10-31T01:07:30;30.47;;;19.27;;
9948;SDS011;5013;51.840;8.276;2022-10-31T01:09:55;27.20;;;18.03;;
9948;SDS011;5013;51.840;8.276;2022-10-31T01:12:21;37.73;;;19.33;;
9948;SDS011;5013;51.840;8.276;2022-10-31T01:14:46;26.77;;;18.93;;
9948;SDS011;5013;51.840;8.276;2022-10-31T01:17:12;25.70;;;17.90;;
9948;SDS011;5013;51.840;8.276;2022-10-31T01:19:39;31.20;;;18.47;;
9948;SDS011;5013;51.840;8.276;2022-10-31T01:22:05;23.87;;;18.10;;
9948;SDS011;5013;51.840;8.276;2022-10-31T01:24:31;32.30;;;18.57;;
9948;SDS011;5013;51.840;8.276;2022-10-31T01:26:57;22.27;;;16.97;;
9948;SDS011;5013;51.840;8.276;2022-10-31T01:29:23;25.97;;;17.63;;
9948;SDS011;5013;51.840;8.276;2022-10-31T01:31:48;28.13;;;17.23;;
9948;SDS011;5013;51.840;8.276;2022-10-31T01:34:15;31.90;;;18.07;;
9948;SDS011;5013;51.840;8.276;2022-10-31T01:36:42;27.63;;;18.80;;
9948;SDS011;5013;51.840;8.276;2022-10-31T01:39:10;28.47;;;18.03;;
9948;SDS011;5013;51.840;8.276;2022-10-31T01:41:38;28.13;;;17.43;;
9948;SDS011;5013;51.840;8.276;2022-10-31T01:49:39;23.27;;;17.37;;
9948;SDS011;5013;51.840;8.276;2022-10-31T01:52:10;28.93;;;18.73;;
9948;SDS011;5013;51.840;8.276;2022-10-31T01:54:41;23.33;;;16.30;;
9948;SDS011;5013;51.840;8.276;2022-10-31T01:57:12;32.43;;;19.40;;
9948;SDS011;5013;51.840;8.276;2022-10-31T01:59:40;23.30;;;16.70;;
9948;SDS011;5013;51.840;8.276;2022-10-31T02:02:10;26.17;;;16.23;;
9948;SDS011;5013;51.840;8.276;2022-10-31T02:04:37;25.60;;;16.80;;
9948;SDS011;5013;51.840;8.276;2022-10-31T02:07:08;26.63;;;18.00;;
9948;SDS011;5013;51.840;8.276;2022-10-31T02:09:39;25.43;;;17.33;;
9948;SDS011;5013;51.840;8.276;2022-10-31T02:12:05;24.33;;;17.30;;
9948;SDS011;5013;51.840;8.276;2022-10-31T02:14:34;23.13;;;16.27;;
9948;SDS011;5013;51.840;8.276;2022-10-31T02:17:02;31.40;;;17.23;;
9948;SDS011;5013;51.840;8.276;2022-10-31T02:19:37;28.33;;;16.70;;
9948;SDS011;5013;51.840;8.276;2022-10-31T02:25:09;25.20;;;17.07;;
9948;SDS011;5013;51.840;8.276;2022-10-31T02:28:19;23.13;;;15.73;;
9948;SDS011;5013;51.840;8.276;2022-10-31T02:31:01;20.50;;;16.27;;
9948;SDS011;5013;51.840;8.276;2022-10-31T02:33:57;30.30;;;19.00;;
9948;SDS011;5013;51.840;8.276;2022-10-31T02:36:29;29.27;;;17.07;;
9948;SDS011;5013;51.840;8.276;2022-10-31T02:39:15;23.47;;;17.27;;
9948;SDS011;5013;51.840;8.276;2022-10-31T02:42:01;25.60;;;17.67;;
9948;SDS011;5013;51.840;8.276;2022-10-31T02:47:29;25.47;;;17.87;;
9948;SDS011;5013;51.840;8.276;2022-10-31T02:52:31;27.27;;;17.60;;
9948;SDS011;5013;51.840;8.276;2022-10-31T02:54:58;24.20;;;17.53;;
9948;SDS011;5013;51.840;8.276;2022-10-31T02:57:34;19.63;;;15.47;;
9948;SDS011;5013;51.840;8.276;2022-10-31T03:00:03;26.27;;;17.50;;
9948;SDS011;5013;51.840;8.276;2022-10-31T03:15:53;28.50;;;19.17;;
9948;SDS011;5013;51.840;8.276;2022-10-31T03:18:43;24.13;;;16.87;;
9948;SDS011;5013;51.840;8.276;2022-10-31T03:24:11;24.93;;;17.63;;
9948;SDS011;5013;51.840;8.276;2022-10-31T03:26:41;26.60;;;18.73;;
9948;SDS011;5013;51.840;8.276;2022-10-31T03:29:10;24.63;;;17.17;;
9948;SDS011;5013;51.840;8.276;2022-10-31T03:31:45;23.60;;;17.97;;
9948;SDS011;5013;51.840;8.276;2022-10-31T03:34:16;26.53;;;18.77;;
9948;SDS011;5013;51.840;8.276;2022-10-31T03:36:44;28.10;;;19.13;;
9948;SDS011;5013;51.840;8.276;2022-10-31T03:39:13;26.47;;;19.07;;
9948;SDS011;5013;51.840;8.276;2022-10-31T03:41:41;28.23;;;19.20;;
9948;SDS011;5013;51.840;8.276;2022-10-31T03:44:19;25.83;;;18.30;;
9948;SDS011;5013;51.840;8.276;2022-10-31T03:46:47;27.87;;;18.03;;
9948;SDS011;5013;51.840;8.276;2022-10-31T03:49:13;28.80;;;18.80;;
9948;SDS011;5013;51.840;8.276;2022-10-31T03:54:30;23.87;;;17.37;;
9948;SDS011;5013;51.840;8.276;2022-10-31T04:00:06;27.20;;;18.20;;
9948;SDS011;5013;51.840;8.276;2022-10-31T04:02:35;24.17;;;17.33;;
9948;SDS011;5013;51.840;8.276;2022-10-31T04:05:03;24.20;;;17.00;;
9948;SDS011;5013;51.840;8.276;2022-10-31T04:07:32;27.53;;;16.77;;
9948;SDS011;5013;51.840;8.276;2022-10-31T04:10:02;25.97;;;16.93;;
9948;SDS011;5013;51.840;8.276;2022-10-31T04:12:32;22.53;;;15.13;;
9948;SDS011;5013;51.840;8.276;2022-10-31T04:14:59;23.23;;;15.37;;
9948;SDS011;5013;51.840;8.276;2022-10-31T04:17:29;24.87;;;16.27;;
9948;SDS011;5013;51.840;8.276;2022-10-31T04:20:01;21.77;;;15.30;;
9948;SDS011;5013;51.840;8.276;2022-10-31T04:22:27;27.10;;;15.40;;
9948;SDS011;5013;51.840;8.276;2022-10-31T04:24:53;25.57;;;17.97;;
9948;SDS011;5013;51.840;8.276;2022-10-31T04:27:18;21.57;;;16.47;;
9948;SDS011;5013;51.840;8.276;2022-10-31T04:29:44;21.27;;;14.33;;
9948;SDS011;5013;51.840;8.276;2022-10-31T04:32:09;17.70;;;14.17;;
9948;SDS011;5013;51.840;8.276;2022-10-31T04:34:35;27.60;;;17.20;;
9948;SDS011;5013;51.840;8.276;2022-10-31T04:37:00;21.93;;;16.67;;
9948;SDS011;5013;51.840;8.276;2022-10-31T04:39:26;20.73;;;16.57;;
9948;SDS011;5013;51.840;8.276;2022-10-31T04:41:52;20.80;;;17.30;;
9948;SDS011;5013;51.840;8.276;2022-10-31T04:44:17;22.47;;;15.27;;
9948;SDS011;5013;51.840;8.276;2022-10-31T04:46:43;19.83;;;14.60;;
9948;SDS011;5013;51.840;8.276;2022-10-31T04:49:08;21.77;;;16.17;;
9948;SDS011;5013;51.840;8.276;2022-10-31T04:51:34;25.37;;;16.53;;
9948;SDS011;5013;51.840;8.276;2022-10-31T04:54:00;19.97;;;15.53;;
9948;SDS011;5013;51.840;8.276;2022-10-31T04:56:25;22.30;;;15.13;;
9948;SDS011;5013;51.840;8.276;2022-10-31T04:58:51;18.57;;;14.33;;
9948;SDS011;5013;51.840;8.276;2022-10-31T05:01:16;24.53;;;14.60;;
9948;SDS011;5013;51.840;8.276;2022-10-31T05:03:42;18.37;;;13.33;;
9948;SDS011;5013;51.840;8.276;2022-10-31T05:06:08;19.17;;;13.60;;
9948;SDS011;5013;51.840;8.276;2022-10-31T05:08:33;14.77;;;13.10;;
9948;SDS011;5013;51.840;8.276;2022-10-31T05:10:59;16.30;;;13.40;;
9948;SDS011;5013;51.840;8.276;2022-10-31T05:13:26;16.50;;;12.60;;
9948;SDS011;5013;51.840;8.276;2022-10-31T05:15:52;19.10;;;14.10;;
9948;SDS011;5013;51.840;8.276;2022-10-31T05:18:18;22.10;;;13.60;;
9948;SDS011;5013;51.840;8.276;2022-10-31T05:20:43;20.13;;;12.60;;
9948;SDS011;5013;51.840;8.276;2022-10-31T05:23:09;18.37;;;12.47;;
9948;SDS011;5013;51.840;8.276;2022-10-31T05:25:34;14.27;;;12.10;;
9948;SDS011;5013;51.840;8.276;2022-10-31T05:28:00;17.60;;;11.97;;
9948;SDS011;5013;51.840;8.276;2022-10-31T05:30:27;18.77;;;12.40;;
9948;SDS011;5013;51.840;8.276;2022-10-31T05:32:54;14.83;;;12.43;;
9948;SDS011;5013;51.840;8.276;2022-10-31T05:35:21;17.80;;;12.90;;
9948;SDS011;5013;51.840;8.276;2022-10-31T05:41:14;15.00;;;11.63;;
9948;SDS011;5013;51.840;8.276;2022-10-31T05:43:39;22.53;;;13.70;;
9948;SDS011;5013;51.840;8.276;2022-10-31T05:46:05;17.50;;;12.37;;
9948;SDS011;5013;51.840;8.276;2022-10-31T05:48:30;17.83;;;13.37;;
9948;SDS011;5013;51.840;8.276;2022-10-31T05:50:56;21.40;;;16.07;;
9948;SDS011;5013;51.840;8.276;2022-10-31T05:53:21;22.10;;;14.50;;
9948;SDS011;5013;51.840;8.276;2022-10-31T05:55:47;21.37;;;15.07;;
9948;SDS011;5013;51.840;8.276;2022-10-31T05:58:12;18.93;;;12.80;;
9948;SDS011;5013;51.840;8.276;2022-10-31T06:04:00;13.07;;;11.70;;
9948;SDS011;5013;51.840;8.276;2022-10-31T06:06:25;18.97;;;12.10;;
9948;SDS011;5013;51.840;8.276;2022-10-31T06:08:51;13.33;;;11.60;;
9948;SDS011;5013;51.840;8.276;2022-10-31T06:11:16;18.37;;;11.47;;
9948;SDS011;5013;51.840;8.276;2022-10-31T06:13:42;12.70;;;11.40;;
9948;SDS011;5013;51.840;8.276;2022-10-31T06:16:08;13.27;;;11.30;;
9948;SDS011;5013;51.840;8.276;2022-10-31T06:18:34;17.90;;;13.43;;
9948;SDS011;5013;51.840;8.276;2022-10-31T06:21:00;13.43;;;11.30;;
9948;SDS011;5013;51.840;8.276;2022-10-31T06:23:25;17.83;;;12.93;;
9948;SDS011;5013;51.840;8.276;2022-10-31T06:25:51;21.77;;;13.20;;
9948;SDS011;5013;51.840;8.276;2022-10-31T06:28:16;19.80;;;12.20;;
9948;SDS011;5013;51.840;8.276;2022-10-31T06:30:44;18.37;;;12.60;;
9948;SDS011;5013;51.840;8.276;2022-10-31T06:33:10;15.23;;;11.73;;
9948;SDS011;5013;51.840;8.276;2022-10-31T06:35:36;18.67;;;12.67;;
9948;SDS011;5013;51.840;8.276;2022-10-31T06:38:01;18.30;;;12.00;;
9948;SDS011;5013;51.840;8.276;2022-10-31T06:40:27;19.30;;;14.97;;
9948;SDS011;5013;51.840;8.276;2022-10-31T06:42:59;17.70;;;13.50;;
9948;SDS011;5013;51.840;8.276;2022-10-31T06:45:25;25.83;;;14.70;;
9948;SDS011;5013;51.840;8.276;2022-10-31T06:51:14;25.10;;;14.87;;
9948;SDS011;5013;51.840;8.276;2022-10-31T06:53:39;18.43;;;14.77;;
9948;SDS011;5013;51.840;8.276;2022-10-31T06:56:05;15.73;;;13.57;;
9948;SDS011;5013;51.840;8.276;2022-10-31T06:58:31;19.53;;;13.87;;
9948;SDS011;5013;51.840;8.276;2022-10-31T07:00:58;22.10;;;15.53;;
9948;SDS011;5013;51.840;8.276;2022-10-31T07:03:25;21.83;;;15.70;;
9948;SDS011;5013;51.840;8.276;2022-10-31T07:05:50;19.03;;;16.03;;
9948;SDS011;5013;51.840;8.276;2022-10-31T07:08:16;18.53;;;16.13;;
9948;SDS011;5013;51.840;8.276;2022-10-31T07:10:42;20.97;;;15.80;;
9948;SDS011;5013;51.840;8.276;2022-10-31T07:13:09;24.03;;;15.07;;
9948;SDS011;5013;51.840;8.276;2022-10-31T07:15:37;20.50;;;14.13;;
9948;SDS011;5013;51.840;8.276;2022-10-31T07:18:05;22.90;;;17.23;;
9948;SDS011;5013;51.840;8.276;2022-10-31T07:20:32;27.70;;;15.43;;
9948;SDS011;5013;51.840;8.276;2022-10-31T07:22:58;23.23;;;16.73;;
9948;SDS011;5013;51.840;8.276;2022-10-31T07:25:25;24.00;;;15.77;;
9948;SDS011;5013;51.840;8.276;2022-10-31T07:27:51;18.20;;;13.90;;
9948;SDS011;5013;51.840;8.276;2022-10-31T07:30:17;18.33;;;13.43;;
9948;SDS011;5013;51.840;8.276;2022-10-31T07:32:48;21.90;;;13.97;;
9948;SDS011;5013;51.840;8.276;2022-10-31T07:38:36;19.63;;;14.20;;
9948;SDS011;5013;51.840;8.276;2022-10-31T07:41:01;19.40;;;12.47;;
9948;SDS011;5013;51.840;8.276;2022-10-31T07:43:27;19.63;;;12.43;;
9948;SDS011;5013;51.840;8.276;2022-10-31T07:45:52;21.80;;;12.27;;
9948;SDS011;5013;51.840;8.276;2022-10-31T07:48:18;19.43;;;12.30;;
9948;SDS011;5013;51.840;8.276;2022-10-31T07:50:44;19.63;;;12.27;;
9948;SDS011;5013;51.840;8.276;2022-10-31T07:53:11;22.37;;;12.93;;
9948;SDS011;5013;51.840;8.276;2022-10-31T07:55:38;18.33;;;12.00;;
9948;SDS011;5013;51.840;8.276;2022-10-31T08:00:35;24.37;;;13.07;;
9948;SDS011;5013;51.840;8.276;2022-10-31T08:03:23;21.00;;;12.57;;
9948;SDS011;5013;51.840;8.276;2022-10-31T08:05:53;19.60;;;12.00;;
9948;SDS011;5013;51.840;8.276;2022-10-31T08:08:40;19.43;;;11.97;;
9948;SDS011;5013;51.840;8.276;2022-10-31T08:11:09;16.90;;;12.07;;
9948;SDS011;5013;51.840;8.276;2022-10-31T08:13:41;20.80;;;13.77;;
9948;SDS011;5013;51.840;8.276;2022-10-31T08:16:10;17.03;;;13.17;;
9948;SDS011;5013;51.840;8.276;2022-10-31T08:18:43;18.97;;;12.27;;
9948;SDS011;5013;51.840;8.276;2022-10-31T08:21:08;15.07;;;12.23;;
9948;SDS011;5013;51.840;8.276;2022-10-31T08:23:35;23.57;;;13.60;;
9948;SDS011;5013;51.840;8.276;2022-10-31T08:26:00;18.87;;;12.53;;
9948;SDS011;5013;51.840;8.276;2022-10-31T08:28:26;18.90;;;14.63;;
9948;SDS011;5013;51.840;8.276;2022-10-31T08:30:52;17.87;;;13.83;;
9948;SDS011;5013;51.840;8.276;2022-10-31T08:33:18;19.83;;;14.30;;
9948;SDS011;5013;51.840;8.276;2022-10-31T08:35:44;28.80;;;16.43;;
9948;SDS011;5013;51.840;8.276;2022-10-31T08:38:10;26.73;;;16.17;;
9948;SDS011;5013;51.840;8.276;2022-10-31T08:40:37;23.33;;;14.30;;
9948;SDS011;5013;51.840;8.276;2022-10-31T08:43:10;20.27;;;13.63;;
9948;SDS011;5013;51.840;8.276;2022-10-31T08:48:59;18.30;;;12.47;;
9948;SDS011;5013;51.840;8.276;2022-10-31T08:51:25;16.40;;;13.13;;
9948;SDS011;5013;51.840;8.276;2022-10-31T08:53:50;20.73;;;13.57;;
9948;SDS011;5013;51.840;8.276;2022-10-31T08:56:16;20.13;;;12.50;;
9948;SDS011;5013;51.840;8.276;2022-10-31T08:58:41;22.37;;;12.70;;
9948;SDS011;5013;51.840;8.276;2022-10-31T09:01:07;27.07;;;14.83;;
9948;SDS011;5013;51.840;8.276;2022-10-31T09:03:32;24.60;;;14.77;;
9948;SDS011;5013;51.840;8.276;2022-10-31T09:05:59;16.90;;;13.73;;
9948;SDS011;5013;51.840;8.276;2022-10-31T09:08:26;21.90;;;14.57;;
9948;SDS011;5013;51.840;8.276;2022-10-31T09:10:55;26.23;;;14.63;;
9948;SDS011;5013;51.840;8.276;2022-10-31T09:13:24;21.20;;;14.07;;
9948;SDS011;5013;51.840;8.276;2022-10-31T09:15:50;26.10;;;14.80;;
9948;SDS011;5013;51.840;8.276;2022-10-31T09:18:18;18.17;;;14.53;;
9948;SDS011;5013;51.840;8.276;2022-10-31T09:20:46;20.77;;;12.93;;
9948;SDS011;5013;51.840;8.276;2022-10-31T09:23:14;25.93;;;15.20;;
9948;SDS011;5013;51.840;8.276;2022-10-31T09:29:03;26.97;;;17.17;;
9948;SDS011;5013;51.840;8.276;2022-10-31T09:31:29;29.97;;;17.57;;
9948;SDS011;5013;51.840;8.276;2022-10-31T09:33:55;22.57;;;16.87;;
9948;SDS011;5013;51.840;8.276;2022-10-31T09:36:20;23.13;;;14.17;;
9948;SDS011;5013;51.840;8.276;2022-10-31T09:38:46;27.83;;;17.83;;
9948;SDS011;5013;51.840;8.276;2022-10-31T09:41:34;29.57;;;16.43;;
9948;SDS011;5013;51.840;8.276;2022-10-31T09:44:11;25.40;;;16.70;;
9948;SDS011;5013;51.840;8.276;2022-10-31T09:52:56;28.43;;;19.73;;
9948;SDS011;5013;51.840;8.276;2022-10-31T09:55:37;29.83;;;17.60;;
9948;SDS011;5013;51.840;8.276;2022-10-31T09:58:08;32.33;;;17.30;;
9948;SDS011;5013;51.840;8.276;2022-10-31T10:00:39;25.47;;;18.50;;
9948;SDS011;5013;51.840;8.276;2022-10-31T10:06:03;25.53;;;17.37;;
9948;SDS011;5013;51.840;8.276;2022-10-31T10:08:41;31.27;;;17.80;;
9948;SDS011;5013;51.840;8.276;2022-10-31T10:11:12;31.07;;;21.57;;
9948;SDS011;5013;51.840;8.276;2022-10-31T10:17:16;30.83;;;21.03;;
9948;SDS011;5013;51.840;8.276;2022-10-31T10:25:55;34.67;;;21.63;;
9948;SDS011;5013;51.840;8.276;2022-10-31T10:28:46;39.90;;;22.67;;
9948;SDS011;5013;51.840;8.276;2022-10-31T10:31:17;37.63;;;22.77;;
9948;SDS011;5013;51.840;8.276;2022-10-31T10:34:18;33.10;;;22.13;;
9948;SDS011;5013;51.840;8.276;2022-10-31T10:36:51;34.33;;;21.83;;
9948;SDS011;5013;51.840;8.276;2022-10-31T10:39:32;36.07;;;22.30;;
9948;SDS011;5013;51.840;8.276;2022-10-31T10:42:13;32.57;;;22.33;;
9948;SDS011;5013;51.840;8.276;2022-10-31T10:44:58;31.23;;;22.50;;
9948;SDS011;5013;51.840;8.276;2022-10-31T10:47:44;33.60;;;22.47;;
9948;SDS011;5013;51.840;8.276;2022-10-31T10:50:18;31.33;;;22.13;;
9948;SDS011;5013;51.840;8.276;2022-10-31T10:52:49;39.00;;;25.27;;
9948;SDS011;5013;51.840;8.276;2022-10-31T10:55:49;43.70;;;25.27;;
9948;SDS011;5013;51.840;8.276;2022-10-31T10:58:21;37.23;;;25.77;;
9948;SDS011;5013;51.840;8.276;2022-10-31T11:04:24;33.87;;;23.07;;
9948;SDS011;5013;51.840;8.276;2022-10-31T11:10:13;38.80;;;28.10;;
9948;SDS011;5013;51.840;8.276;2022-10-31T11:12:39;31.03;;;23.50;;
9948;SDS011;5013;51.840;8.276;2022-10-31T11:15:19;38.90;;;24.43;;
9948;SDS011;5013;51.840;8.276;2022-10-31T11:17:48;36.27;;;25.60;;
9948;SDS011;5013;51.840;8.276;2022-10-31T11:22:43;34.37;;;25.70;;
9948;SDS011;5013;51.840;8.276;2022-10-31T11:27:44;36.90;;;24.20;;
9948;SDS011;5013;51.840;8.276;2022-10-31T11:30:14;33.27;;;23.87;;
9948;SDS011;5013;51.840;8.276;2022-10-31T11:32:42;39.10;;;27.07;;
9948;SDS011;5013;51.840;8.276;2022-10-31T11:35:17;40.07;;;26.30;;
9948;SDS011;5013;51.840;8.276;2022-10-31T11:37:46;36.73;;;25.20;;
9948;SDS011;5013;51.840;8.276;2022-10-31T11:40:19;34.77;;;24.93;;
9948;SDS011;5013;51.840;8.276;2022-10-31T11:42:47;39.20;;;25.33;;
9948;SDS011;5013;51.840;8.276;2022-10-31T11:47:51;35.93;;;26.60;;
9948;SDS011;5013;51.840;8.276;2022-10-31T11:50:21;39.07;;;27.17;;
9948;SDS011;5013;51.840;8.276;2022-10-31T11:52:50;35.30;;;25.03;;
9948;SDS011;5013;51.840;8.276;2022-10-31T11:55:31;35.87;;;24.13;;
9948;SDS011;5013;51.840;8.276;2022-10-31T11:57:57;35.60;;;23.90;;
9948;SDS011;5013;51.840;8.276;2022-10-31T12:00:33;39.03;;;27.20;;
9948;SDS011;5013;51.840;8.276;2022-10-31T12:06:02;30.97;;;24.07;;
9948;SDS011;5013;51.840;8.276;2022-10-31T12:08:38;38.17;;;25.47;;
9948;SDS011;5013;51.840;8.276;2022-10-31T12:23:19;38.27;;;26.00;;
9948;SDS011;5013;51.840;8.276;2022-10-31T12:43:25;38.10;;;26.70;;
9948;SDS011;5013;51.840;8.276;2022-10-31T12:45:59;40.23;;;26.57;;
9948;SDS011;5013;51.840;8.276;2022-10-31T12:52:54;34.13;;;24.40;;
9948;SDS011;5013;51.840;8.276;2022-10-31T12:57:52;35.37;;;25.50;;
9948;SDS011;5013;51.840;8.276;2022-10-31T13:07:07;36.57;;;25.57;;
9948;SDS011;5013;51.840;8.276;2022-10-31T13:12:49;31.63;;;22.57;;
9948;SDS011;5013;51.840;8.276;2022-10-31T13:15:20;40.57;;;23.70;;
9948;SDS011;5013;51.840;8.276;2022-10-31T13:21:13;31.87;;;20.37;;
9948;SDS011;5013;51.840;8.276;2022-10-31T13:23:49;25.43;;;19.17;;
9948;SDS011;5013;51.840;8.276;2022-10-31T13:35:31;21.40;;;14.00;;
9948;SDS011;5013;51.840;8.276;2022-10-31T13:44:12;24.93;;;15.40;;
9948;SDS011;5013;51.840;8.276;2022-10-31T13:46:39;21.17;;;14.00;;
9948;SDS011;5013;51.840;8.276;2022-10-31T13:49:21;23.17;;;13.57;;
9948;SDS011;5013;51.840;8.276;2022-10-31T13:51:48;21.07;;;13.70;;
9948;SDS011;5013;51.840;8.276;2022-10-31T13:57:38;19.63;;;12.53;;
9948;SDS011;5013;51.840;8.276;2022-10-31T14:02:49;23.83;;;13.40;;
9948;SDS011;5013;51.840;8.276;2022-10-31T14:07:58;19.17;;;13.03;;
9948;SDS011;5013;51.840;8.276;2022-10-31T14:10:30;22.27;;;14.17;;
9948;SDS011;5013;51.840;8.276;2022-10-31T14:18:56;22.40;;;13.53;;
9948;SDS011;5013;51.840;8.276;2022-10-31T14:21:35;20.37;;;13.77;;
9948;SDS011;5013;51.840;8.276;2022-10-31T14:24:02;19.70;;;13.70;;
9948;SDS011;5013;51.840;8.276;2022-10-31T14:26:54;17.13;;;12.13;;
9948;SDS011;5013;51.840;8.276;2022-10-31T14:29:23;25.37;;;13.40;;
9948;SDS011;5013;51.840;8.276;2022-10-31T14:34:23;21.80;;;13.10;;
9948;SDS011;5013;51.840;8.276;2022-10-31T14:37:01;20.60;;;13.63;;
9948;SDS011;5013;51.840;8.276;2022-10-31T14:39:51;22.33;;;13.73;;
9948;SDS011;5013;51.840;8.276;2022-10-31T14:50:40;23.17;;;12.87;;
9948;SDS011;5013;51.840;8.276;2022-10-31T14:53:14;25.73;;;14.57;;
9948;SDS011;5013;51.840;8.276;2022-10-31T14:56:05;21.73;;;15.77;;
9948;SDS011;5013;51.840;8.276;2022-10-31T14:58:42;25.40;;;14.23;;
9948;SDS011;5013;51.840;8.276;2022-10-31T15:03:58;21.60;;;14.47;;
9948;SDS011;5013;51.840;8.276;2022-10-31T15:06:30;23.33;;;16.77;;
9948;SDS011;5013;51.840;8.276;2022-10-31T15:09:04;21.77;;;15.17;;
9948;SDS011;5013;51.840;8.276;2022-10-31T15:11:35;22.93;;;14.57;;
9948;SDS011;5013;51.840;8.276;2022-10-31T15:14:14;24.00;;;15.47;;
9948;SDS011;5013;51.840;8.276;2022-10-31T15:16:47;27.40;;;17.23;;
9948;SDS011;5013;51.840;8.276;2022-10-31T15:19:15;29.83;;;17.70;;
9948;SDS011;5013;51.840;8.276;2022-10-31T15:21:46;22.87;;;15.70;;
9948;SDS011;5013;51.840;8.276;2022-10-31T15:24:14;24.87;;;16.73;;
9948;SDS011;5013;51.840;8.276;2022-10-31T15:26:43;25.73;;;15.60;;
9948;SDS011;5013;51.840;8.276;2022-10-31T15:29:11;22.73;;;15.07;;
9948;SDS011;5013;51.840;8.276;2022-10-31T15:31:48;22.23;;;15.93;;
9948;SDS011;5013;51.840;8.276;2022-10-31T15:35:00;26.60;;;15.90;;
9948;SDS011;5013;51.840;8.276;2022-10-31T15:37:11;25.67;;;16.67;;
9948;SDS011;5013;51.840;8.276;2022-10-31T15:39:41;22.67;;;15.60;;
9948;SDS011;5013;51.840;8.276;2022-10-31T15:45:33;28.40;;;15.27;;
9948;SDS011;5013;51.840;8.276;2022-10-31T15:47:44;23.57;;;15.47;;
9948;SDS011;5013;51.840;8.276;2022-10-31T15:50:20;27.87;;;14.70;;
9948;SDS011;5013;51.840;8.276;2022-10-31T15:53:00;20.57;;;14.33;;
9948;SDS011;5013;51.840;8.276;2022-10-31T15:55:27;26.27;;;15.77;;
9948;SDS011;5013;51.840;8.276;2022-10-31T15:57:58;23.27;;;14.63;;
9948;SDS011;5013;51.840;8.276;2022-10-31T16:00:28;22.57;;;14.70;;
9948;SDS011;5013;51.840;8.276;2022-10-31T16:05:44;22.40;;;15.97;;
9948;SDS011;5013;51.840;8.276;2022-10-31T16:10:56;24.17;;;15.80;;
9948;SDS011;5013;51.840;8.276;2022-10-31T16:13:52;19.13;;;14.93;;
9948;SDS011;5013;51.840;8.276;2022-10-31T16:16:19;38.73;;;15.10;;
9948;SDS011;5013;51.840;8.276;2022-10-31T16:18:46;26.53;;;15.23;;
9948;SDS011;5013;51.840;8.276;2022-10-31T16:21:14;25.07;;;15.03;;
9948;SDS011;5013;51.840;8.276;2022-10-31T16:23:47;31.93;;;15.83;;
9948;SDS011;5013;51.840;8.276;2022-10-31T16:26:18;25.00;;;15.40;;
9948;SDS011;5013;51.840;8.276;2022-10-31T16:28:51;20.53;;;14.43;;
9948;SDS011;5013;51.840;8.276;2022-10-31T16:31:25;28.23;;;15.47;;
9948;SDS011;5013;51.840;8.276;2022-10-31T16:34:10;22.40;;;14.67;;
9948;SDS011;5013;51.840;8.276;2022-10-31T16:36:44;26.23;;;17.00;;
9948;SDS011;5013;51.840;8.276;2022-10-31T16:39:10;23.93;;;15.33;;
9948;SDS011;5013;51.840;8.276;2022-10-31T16:41:40;21.13;;;14.53;;
9948;SDS011;5013;51.840;8.276;2022-10-31T16:44:23;28.13;;;16.70;;
9948;SDS011;5013;51.840;8.276;2022-10-31T16:49:37;27.20;;;17.97;;
9948;SDS011;5013;51.840;8.276;2022-10-31T16:52:02;29.67;;;17.73;;
9948;SDS011;5013;51.840;8.276;2022-10-31T16:54:30;25.23;;;18.03;;
9948;SDS011;5013;51.840;8.276;2022-10-31T16:56:57;27.77;;;17.77;;
9948;SDS011;5013;51.840;8.276;2022-10-31T16:59:23;27.20;;;17.63;;
9948;SDS011;5013;51.840;8.276;2022-10-31T17:01:50;26.23;;;17.30;;
9948;SDS011;5013;51.840;8.276;2022-10-31T17:04:15;21.27;;;16.23;;
9948;SDS011;5013;51.840;8.276;2022-10-31T17:06:41;24.23;;;16.30;;
9948;SDS011;5013;51.840;8.276;2022-10-31T17:09:07;26.50;;;17.70;;
9948;SDS011;5013;51.840;8.276;2022-10-31T17:11:33;25.83;;;17.70;;
9948;SDS011;5013;51.840;8.276;2022-10-31T17:14:00;27.97;;;16.80;;
9948;SDS011;5013;51.840;8.276;2022-10-31T17:16:26;26.30;;;17.77;;
9948;SDS011;5013;51.840;8.276;2022-10-31T17:18:53;28.43;;;16.83;;
9948;SDS011;5013;51.840;8.276;2022-10-31T17:21:20;22.33;;;16.53;;
9948;SDS011;5013;51.840;8.276;2022-10-31T17:27:10;22.03;;;16.30;;
9948;SDS011;5013;51.840;8.276;2022-10-31T17:29:37;27.90;;;19.43;;
9948;SDS011;5013;51.840;8.276;2022-10-31T17:32:02;24.87;;;17.30;;
9948;SDS011;5013;51.840;8.276;2022-10-31T17:34:29;23.67;;;15.50;;
9948;SDS011;5013;51.840;8.276;2022-10-31T17:36:55;26.67;;;17.30;;
9948;SDS011;5013;51.840;8.276;2022-10-31T17:39:21;22.97;;;16.23;;
9948;SDS011;5013;51.840;8.276;2022-10-31T17:41:50;21.73;;;14.93;;
9948;SDS011;5013;51.840;8.276;2022-10-31T17:44:16;21.67;;;15.23;;
9948;SDS011;5013;51.840;8.276;2022-10-31T17:46:42;20.83;;;16.23;;
9948;SDS011;5013;51.840;8.276;2022-10-31T17:49:13;22.50;;;16.23;;
9948;SDS011;5013;51.840;8.276;2022-10-31T17:51:38;23.00;;;16.53;;
9948;SDS011;5013;51.840;8.276;2022-10-31T17:54:04;23.13;;;16.20;;
9948;SDS011;5013;51.840;8.276;2022-10-31T17:56:30;24.03;;;16.27;;
9948;SDS011;5013;51.840;8.276;2022-10-31T17:58:56;24.77;;;16.07;;
9948;SDS011;5013;51.840;8.276;2022-10-31T18:01:22;20.33;;;15.17;;
9948;SDS011;5013;51.840;8.276;2022-10-31T18:03:48;18.97;;;15.00;;
9948;SDS011;5013;51.840;8.276;2022-10-31T18:06:13;26.90;;;16.70;;
9948;SDS011;5013;51.840;8.276;2022-10-31T18:08:41;24.07;;;16.70;;
9948;SDS011;5013;51.840;8.276;2022-10-31T18:11:08;22.27;;;15.13;;
9948;SDS011;5013;51.840;8.276;2022-10-31T18:13:40;19.63;;;14.63;;
9948;SDS011;5013;51.840;8.276;2022-10-31T18:16:09;22.70;;;14.70;;
9948;SDS011;5013;51.840;8.276;2022-10-31T18:18:37;22.17;;;15.23;;
9948;SDS011;5013;51.840;8.276;2022-10-31T18:21:03;27.30;;;15.30;;
9948;SDS011;5013;51.840;8.276;2022-10-31T18:23:28;25.17;;;16.17;;
9948;SDS011;5013;51.840;8.276;2022-10-31T18:25:54;20.57;;;14.93;;